Time;durP1;ratioP1;P1;durP2;ratioP2;P2;SDS_P1;SDS_P2;PMS_P1;PMS_P2;Temp;Humidity;BMP_temperature;BMP_pressure;BME280_temperature;BME280_humidity;BME280_pressure;Samples;Min_cycle;Max_cycle;Signal;HPM_P1;HPM_P2
2022/08/15 00:01:39;;;;;;;1.98;0.30;;;18.50;83.60;;;;;;5075428;28;20040;-78
2022/08/15 00:04:08;;;;;;;0.45;0.20;;;18.60;83.80;;;;;;5061463;28;20056;-80
2022/08/15 00:06:41;;;;;;;0.77;0.10;;;19.20;84.90;;;;;;5072072;28;20103;-78
2022/08/15 00:09:24;;;;;;;0.00;0.00;;;19.40;83.60;;;;;;5083853;28;20031;-78
2022/08/15 00:11:57;;;;;;;1.23;0.10;;;19.60;83.10;;;;;;5077505;28;20088;-78
2022/08/15 00:14:31;;;;;;;1.75;0.20;;;19.60;82.50;;;;;;5081418;28;20071;-78
2022/08/15 00:17:01;;;;;;;0.32;0.10;;;19.70;81.80;;;;;;5063450;28;20028;-77
2022/08/15 00:19:31;;;;;;;0.65;0.10;;;19.40;81.90;;;;;;5067971;28;20070;-79
2022/08/15 00:22:04;;;;;;;0.28;0.10;;;19.50;81.10;;;;;;5054879;28;20149;-76
2022/08/15 00:24:34;;;;;;;2.05;0.60;;;19.10;81.60;;;;;;5062466;28;20146;-77
2022/08/15 00:27:07;;;;;;;0.10;0.10;;;19.00;82.60;;;;;;5074131;28;20111;-77
2022/08/15 00:29:35;;;;;;;1.30;0.20;;;18.80;81.60;;;;;;5067677;28;20496;-77
2022/08/15 00:32:06;;;;;;;0.22;0.10;;;18.30;83.00;;;;;;5061649;28;20051;-79
2022/08/15 00:34:33;;;;;;;0.43;0.20;;;17.90;82.80;;;;;;5052175;28;20036;-81
2022/08/15 00:37:02;;;;;;;1.35;0.13;;;17.60;83.90;;;;;;5073119;28;20536;-83
2022/08/15 00:39:29;;;;;;;0.73;0.10;;;17.80;84.40;;;;;;5057393;28;20040;-79
2022/08/15 00:42:00;;;;;;;0.88;0.20;;;18.00;84.00;;;;;;5067527;28;20028;-79
2022/08/15 00:44:34;;;;;;;3.53;0.28;;;18.40;83.40;;;;;;5077762;28;20123;-79
2022/08/15 00:47:07;;;;;;;0.10;0.10;;;18.80;83.60;;;;;;5053412;28;21928;-79
2022/08/15 00:49:35;;;;;;;0.40;0.10;;;19.00;82.40;;;;;;5064365;28;20075;-78
2022/08/15 00:52:11;;;;;;;0.52;0.15;;;19.20;82.50;;;;;;5056156;28;20051;-76
2022/08/15 00:54:54;;;;;;;1.02;0.17;;;19.20;80.50;;;;;;5054277;28;20896;-77
2022/08/15 00:57:25;;;;;;;0.20;0.13;;;19.30;81.30;;;;;;5055238;28;20519;-77
2022/08/15 00:59:58;;;;;;;0.28;0.10;;;19.20;80.30;;;;;;5051392;28;20175;-78
2022/08/15 01:02:30;;;;;;;1.75;0.10;;;19.40;80.90;;;;;;5065994;28;20471;-76
2022/08/15 01:04:59;;;;;;;0.43;0.10;;;19.60;81.50;;;;;;5051450;28;20032;-80
2022/08/15 01:07:27;;;;;;;0.43;0.20;;;19.20;79.50;;;;;;5064023;28;20021;-74
2022/08/15 01:09:55;;;;;;;0.10;0.10;;;18.50;81.00;;;;;;5064162;28;20025;-76
2022/08/15 01:12:27;;;;;;;0.00;0.00;;;18.60;81.60;;;;;;5061844;28;20064;-79
2022/08/15 01:15:02;;;;;;;1.27;0.15;;;18.50;81.50;;;;;;5063799;28;20089;-77
2022/08/15 01:17:31;;;;;;;0.30;0.15;;;18.20;81.90;;;;;;5063603;28;20371;-79
2022/08/15 01:20:12;;;;;;;0.73;0.30;;;18.00;82.40;;;;;;5057153;28;20036;-79
2022/08/15 01:22:57;;;;;;;1.08;0.20;;;18.30;82.90;;;;;;5069646;28;20025;-81
2022/08/15 01:25:31;;;;;;;1.15;0.10;;;19.10;81.90;;;;;;5054219;28;20029;-78
2022/08/15 01:28:24;;;;;;;1.15;0.10;;;19.70;79.60;;;;;;5056740;28;20056;-78
2022/08/15 01:30:57;;;;;;;0.47;0.10;;;19.30;81.10;;;;;;5061520;28;20029;-79
2022/08/15 01:33:27;;;;;;;0.52;0.10;;;18.80;82.70;;;;;;5058975;28;20033;-81
2022/08/15 01:35:56;;;;;;;0.10;0.10;;;20.00;81.10;;;;;;5050102;28;20049;-80
2022/08/15 01:38:27;;;;;;;1.40;0.10;;;21.10;79.20;;;;;;5051817;28;20045;-79
2022/08/15 01:41:27;;;;;;;0.13;0.10;;;21.70;78.80;;;;;;5061908;28;20032;-77
2022/08/15 01:44:19;;;;;;;0.20;0.10;;;22.00;76.70;;;;;;5072383;28;20035;-79
2022/08/15 01:46:55;;;;;;;0.13;0.10;;;21.10;77.90;;;;;;5053036;28;20033;-79
2022/08/15 01:49:26;;;;;;;;;;;21.80;77.10;;;;;;5071073;28;20491;-79
2022/08/15 01:51:57;;;;;;;0.50;0.10;;;22.30;77.10;;;;;;5053036;28;19924;-79
2022/08/15 01:54:29;;;;;;;0.00;0.00;;;22.50;74.40;;;;;;5055537;28;20036;-79
2022/08/15 01:56:58;;;;;;;0.10;0.10;;;23.20;76.20;;;;;;5063032;28;20043;-79
2022/08/15 01:59:25;;;;;;;0.43;0.00;;;23.70;75.00;;;;;;5061845;28;20053;-80
2022/08/15 02:02:00;;;;;;;0.20;0.05;;;23.40;71.80;;;;;;5061414;28;20167;-79
2022/08/15 02:04:33;;;;;;;0.20;0.00;;;22.70;73.60;;;;;;5064342;28;20107;-78
2022/08/15 02:07:06;;;;;;;0.57;0.20;;;22.60;74.40;;;;;;5071681;28;20027;-78
2022/08/15 02:09:33;;;;;;;0.40;0.17;;;22.60;75.10;;;;;;5067392;28;22490;-79
2022/08/15 02:12:01;;;;;;;0.10;0.10;;;22.90;74.00;;;;;;5049316;28;20029;-78
2022/08/15 02:14:31;;;;;;;0.38;0.17;;;23.50;72.70;;;;;;5050371;28;20348;-81
2022/08/15 02:16:59;;;;;;;0.10;0.10;;;23.20;73.10;;;;;;5055709;28;20025;-82
2022/08/15 02:19:28;;;;;;;3.30;0.35;;;22.70;73.80;;;;;;5051318;28;20045;-83
2022/08/15 02:21:56;;;;;;;1.08;0.10;;;21.70;74.00;;;;;;5051431;28;20275;-78
2022/08/15 02:24:24;;;;;;;0.98;0.52;;;20.80;75.40;;;;;;5054070;28;20039;-79
2022/08/15 02:26:54;;;;;;;0.47;0.10;;;19.90;76.00;;;;;;5073770;28;20028;-80
2022/08/15 02:29:25;;;;;;;1.50;0.20;;;19.60;77.50;;;;;;5059213;28;20025;-78
2022/08/15 02:31:55;;;;;;;0.20;0.10;;;19.30;77.90;;;;;;5054683;28;20029;-80
2022/08/15 02:34:23;;;;;;;0.95;0.10;;;19.20;77.50;;;;;;5067458;28;20455;-81
2022/08/15 02:36:52;;;;;;;2.80;0.20;;;19.20;78.70;;;;;;5062759;28;20495;-77
2022/08/15 02:39:19;;;;;;;0.43;0.20;;;18.90;78.60;;;;;;5068664;28;20554;-78
2022/08/15 02:41:50;;;;;;;0.75;0.10;;;19.00;79.10;;;;;;5077601;28;20037;-78
2022/08/15 02:44:21;;;;;;;1.40;0.03;;;19.00;79.10;;;;;;5049543;28;20067;-79
2022/08/15 02:46:54;;;;;;;2.72;0.25;;;19.00;79.00;;;;;;5052256;28;20678;-83
2022/08/15 02:49:23;;;;;;;0.30;0.08;;;19.10;79.30;;;;;;5054809;28;20503;-82
2022/08/15 02:51:51;;;;;;;0.63;0.20;;;19.30;79.00;;;;;;5056337;28;20040;-79
2022/08/15 02:54:22;;;;;;;0.20;0.10;;;19.00;78.50;;;;;;5065685;28;20032;-78
2022/08/15 02:56:49;;;;;;;0.20;0.10;;;19.00;79.10;;;;;;5062392;28;20089;-77
2022/08/15 02:59:16;;;;;;;0.20;0.20;;;18.90;80.00;;;;;;5070198;28;20052;-78
2022/08/15 03:01:44;;;;;;;0.30;0.13;;;18.80;79.60;;;;;;5061834;28;20025;-77
2022/08/15 03:04:15;;;;;;;0.20;0.20;;;18.70;79.50;;;;;;5054859;28;20028;-77
2022/08/15 03:06:43;;;;;;;0.73;0.28;;;18.70;80.60;;;;;;5056569;28;20044;-76
2022/08/15 03:09:12;;;;;;;0.30;0.03;;;18.70;80.30;;;;;;5055158;28;20032;-76
2022/08/15 03:11:42;;;;;;;0.50;0.03;;;18.80;80.70;;;;;;5052252;28;20028;-78
2022/08/15 03:14:16;;;;;;;0.10;0.00;;;18.90;80.10;;;;;;5059802;28;20043;-81
2022/08/15 03:16:46;;;;;;;0.20;0.10;;;18.90;79.80;;;;;;5057300;28;20077;-79
2022/08/15 03:19:18;;;;;;;1.10;0.13;;;18.90;80.70;;;;;;5051321;28;20135;-79
2022/08/15 03:21:49;;;;;;;0.10;0.10;;;18.90;80.60;;;;;;5051421;28;20441;-78
2022/08/15 03:24:19;;;;;;;1.55;0.52;;;18.90;81.20;;;;;;5051897;28;20089;-76
2022/08/15 03:26:47;;;;;;;0.17;0.10;;;19.00;80.00;;;;;;5062178;28;20021;-79
2022/08/15 03:29:18;;;;;;;0.85;0.10;;;19.20;81.90;;;;;;5057884;28;20036;-78
2022/08/15 03:31:48;;;;;;;0.38;0.20;;;19.70;80.40;;;;;;5072928;28;20378;-79
2022/08/15 03:34:19;;;;;;;0.20;0.10;;;19.90;79.60;;;;;;5056673;28;20487;-79
2022/08/15 03:36:46;;;;;;;0.70;0.15;;;19.80;79.10;;;;;;5049153;28;21360;-81
2022/08/15 03:39:15;;;;;;;0.13;0.10;;;20.10;78.40;;;;;;5051167;28;20040;-80
2022/08/15 03:41:43;;;;;;;1.35;0.20;;;19.60;79.80;;;;;;5055265;28;20020;-79
2022/08/15 03:44:12;;;;;;;0.30;0.10;;;19.20;80.90;;;;;;5050319;28;20036;-78
2022/08/15 03:46:39;;;;;;;0.45;0.20;;;19.20;81.60;;;;;;5052346;28;20025;-76
2022/08/15 03:49:07;;;;;;;0.95;0.30;;;18.70;81.20;;;;;;5048453;28;20075;-82
2022/08/15 03:51:34;;;;;;;0.38;0.20;;;18.30;82.90;;;;;;5053964;28;20078;-81
2022/08/15 03:54:02;;;;;;;0.28;0.20;;;18.20;83.70;;;;;;5064588;28;20100;-77
2022/08/15 03:56:32;;;;;;;0.63;0.20;;;18.20;83.70;;;;;;5079618;28;20378;-79
2022/08/15 03:59:00;;;;;;;1.42;0.05;;;18.20;84.10;;;;;;5053297;28;20040;-80
2022/08/15 04:01:33;;;;;;;0.63;0.13;;;18.40;83.50;;;;;;5054702;28;20104;-80
2022/08/15 04:04:01;;;;;;;5.35;0.10;;;18.60;84.10;;;;;;5070767;28;20033;-78
2022/08/15 04:06:29;;;;;;;1.33;0.15;;;18.50;83.00;;;;;;5065577;28;20042;-79
2022/08/15 04:08:59;;;;;;;0.30;0.10;;;18.40;83.90;;;;;;5075266;28;20062;-78
2022/08/15 04:11:30;;;;;;;1.67;0.10;;;18.30;84.20;;;;;;5059674;28;20057;-80
2022/08/15 04:13:58;;;;;;;0.75;0.10;;;18.30;84.00;;;;;;5051561;28;20075;-80
2022/08/15 04:16:25;;;;;;;0.13;0.10;;;18.30;84.40;;;;;;5050773;28;20029;-78
2022/08/15 04:18:53;;;;;;;0.65;0.20;;;18.30;84.80;;;;;;5051853;28;20443;-79
2022/08/15 04:21:21;;;;;;;0.20;0.10;;;18.30;84.50;;;;;;5049842;28;20032;-78
2022/08/15 04:23:49;;;;;;;2.08;0.80;;;18.20;84.80;;;;;;5053991;28;20388;-79
2022/08/15 04:26:17;;;;;;;1.70;0.60;;;18.10;85.50;;;;;;5054475;28;20025;-78
2022/08/15 04:28:44;;;;;;;1.55;0.25;;;18.10;87.00;;;;;;5058470;28;20166;-79
2022/08/15 04:31:23;;;;;;;1.35;0.10;;;18.20;86.00;;;;;;5057247;28;20020;-78
2022/08/15 04:33:50;;;;;;;0.30;0.10;;;18.30;86.80;;;;;;5059044;28;20430;-79
2022/08/15 04:36:20;;;;;;;0.28;0.20;;;18.30;85.60;;;;;;5045330;28;20037;-78
2022/08/15 04:38:50;;;;;;;0.47;0.22;;;18.20;85.90;;;;;;5051192;28;20040;-79
2022/08/15 04:41:19;;;;;;;0.30;0.10;;;18.20;85.70;;;;;;5059376;28;20051;-79
2022/08/15 04:43:46;;;;;;;0.73;0.10;;;18.20;85.20;;;;;;5069224;28;20033;-80
2022/08/15 04:46:13;;;;;;;0.28;0.10;;;18.10;85.90;;;;;;5054728;28;20104;-80
2022/08/15 04:48:41;;;;;;;0.45;0.20;;;18.00;86.10;;;;;;5055678;28;20024;-79
2022/08/15 04:51:09;;;;;;;0.63;0.35;;;18.10;86.70;;;;;;5058096;28;20055;-78
2022/08/15 04:53:39;;;;;;;0.10;0.10;;;18.10;86.50;;;;;;5068059;28;20046;-78
2022/08/15 04:56:07;;;;;;;0.20;0.10;;;18.20;86.40;;;;;;5058072;28;20167;-80
2022/08/15 04:58:36;;;;;;;0.45;0.10;;;18.20;86.60;;;;;;5046352;28;20128;-79
2022/08/15 05:01:07;;;;;;;1.23;0.25;;;18.10;86.40;;;;;;5048573;28;20036;-78
2022/08/15 05:03:35;;;;;;;0.15;0.03;;;18.00;86.10;;;;;;5045931;28;20033;-80
2022/08/15 05:06:06;;;;;;;0.35;0.10;;;17.80;86.20;;;;;;5042146;28;20033;-80
2022/08/15 05:08:36;;;;;;;0.52;0.10;;;17.70;86.50;;;;;;5043691;28;20040;-80
2022/08/15 05:11:17;;;;;;;0.25;0.08;;;17.60;86.80;;;;;;5047508;28;20044;-80
2022/08/15 05:13:45;;;;;;;0.08;0.00;;;17.40;87.60;;;;;;5049242;28;20422;-80
2022/08/15 05:16:13;;;;;;;0.10;0.03;;;17.30;87.70;;;;;;5067606;28;20023;-79
2022/08/15 05:18:42;;;;;;;0.00;0.00;;;17.20;87.30;;;;;;5079152;28;20052;-79
2022/08/15 05:21:11;;;;;;;0.05;0.03;;;17.10;87.20;;;;;;5068165;28;20367;-78
2022/08/15 05:23:41;;;;;;;0.10;0.00;;;16.80;87.50;;;;;;5069454;28;20025;-80
2022/08/15 05:26:09;;;;;;;0.10;0.10;;;16.70;88.40;;;;;;5064920;28;20053;-76
2022/08/15 05:28:37;;;;;;;0.03;0.00;;;16.60;87.90;;;;;;5079375;28;20104;-76
2022/08/15 05:31:06;;;;;;;0.70;0.52;;;16.60;88.70;;;;;;5066523;28;20032;-76
2022/08/15 05:33:35;;;;;;;0.60;0.10;;;16.60;89.20;;;;;;5052387;28;20032;-77
2022/08/15 05:36:05;;;;;;;0.13;0.10;;;16.70;89.80;;;;;;5054302;28;20029;-76
2022/08/15 05:38:38;;;;;;;0.10;0.10;;;16.70;90.00;;;;;;5053892;28;20033;-77
2022/08/15 05:41:21;;;;;;;1.13;0.00;;;16.70;89.60;;;;;;5059208;28;20036;-77
2022/08/15 05:43:48;;;;;;;0.08;0.00;;;16.60;88.80;;;;;;5064829;28;20024;-78
2022/08/15 05:46:46;;;;;;;0.10;0.10;;;16.50;89.20;;;;;;5060721;28;20138;-78
2022/08/15 05:49:24;;;;;;;0.08;0.05;;;16.40;89.60;;;;;;5054755;28;20487;-75
2022/08/15 05:52:14;;;;;;;0.30;0.20;;;16.30;89.40;;;;;;5054201;28;20108;-77
2022/08/15 05:54:59;;;;;;;1.80;0.30;;;16.10;89.50;;;;;;5056739;28;20363;-77
2022/08/15 05:57:58;;;;;;;0.05;0.00;;;16.00;90.00;;;;;;5064761;28;20052;-79
2022/08/15 06:00:28;;;;;;;1.75;0.10;;;15.90;89.70;;;;;;5057309;28;20067;-79
2022/08/15 06:03:18;;;;;;;3.10;0.20;;;15.80;89.20;;;;;;5056816;28;20032;-80
2022/08/15 06:05:53;;;;;;;0.10;0.10;;;15.70;89.20;;;;;;5057018;28;20036;-79
2022/08/15 06:08:32;;;;;;;0.20;0.10;;;15.60;90.00;;;;;;5056496;28;20020;-78
2022/08/15 06:11:24;;;;;;;0.15;0.10;;;15.60;89.70;;;;;;5069436;28;20284;-79
2022/08/15 06:14:30;;;;;;;1.38;0.10;;;15.50;89.80;;;;;;5072018;28;20474;-77
2022/08/15 06:17:05;;;;;;;0.32;0.20;;;15.50;90.10;;;;;;5053030;28;20041;-77
2022/08/15 06:19:37;;;;;;;0.95;0.22;;;15.50;90.30;;;;;;5052981;28;20037;-77
2022/08/15 06:22:40;;;;;;;0.40;0.20;;;15.40;90.40;;;;;;5057387;28;20024;-78
2022/08/15 06:25:35;;;;;;;0.63;0.10;;;15.30;90.60;;;;;;5066714;28;20033;-78
2022/08/15 06:28:21;;;;;;;0.32;0.10;;;15.30;90.80;;;;;;5063618;28;20082;-76
2022/08/15 06:31:04;;;;;;;0.40;0.20;;;15.20;90.90;;;;;;5055829;28;20032;-77
2022/08/15 06:33:37;;;;;;;0.73;0.30;;;15.10;91.10;;;;;;5060774;28;20028;-77
2022/08/15 06:36:23;;;;;;;1.00;0.90;;;15.00;91.20;;;;;;5073150;28;20368;-77
2022/08/15 06:39:35;;;;;;;0.77;0.60;;;14.90;91.20;;;;;;5068919;28;20487;-75
2022/08/15 06:42:10;;;;;;;1.27;0.63;;;14.90;91.40;;;;;;5059364;28;20036;-76
2022/08/15 06:44:37;;;;;;;8.90;5.40;;;14.80;91.40;;;;;;5054493;28;20033;-78
2022/08/15 06:47:07;;;;;;;12.43;6.32;;;14.80;91.60;;;;;;5060215;28;20032;-77
2022/08/15 06:49:41;;;;;;;2.88;0.90;;;14.70;91.80;;;;;;5062015;28;20133;-77
2022/08/15 06:52:10;;;;;;;1.23;0.70;;;14.70;91.80;;;;;;5069164;28;20052;-76
2022/08/15 06:54:40;;;;;;;0.30;0.20;;;14.70;92.00;;;;;;5065239;28;20489;-77
2022/08/15 06:57:26;;;;;;;0.40;0.20;;;14.60;92.00;;;;;;5071210;28;20562;-77
2022/08/15 07:00:34;;;;;;;0.98;0.22;;;14.50;92.00;;;;;;5059965;28;20051;-77
2022/08/15 07:03:10;;;;;;;0.52;0.17;;;14.50;92.30;;;;;;5059134;28;20036;-76
2022/08/15 07:05:54;;;;;;;0.73;0.25;;;14.50;92.20;;;;;;5060665;28;20127;-76
2022/08/15 07:08:33;;;;;;;0.45;0.20;;;14.50;92.30;;;;;;5061224;28;20047;-76
2022/08/15 07:11:17;;;;;;;0.85;0.63;;;14.40;92.40;;;;;;5067290;28;20032;-80
2022/08/15 07:13:53;;;;;;;0.82;0.47;;;14.40;92.40;;;;;;5069412;28;20108;-78
2022/08/15 07:16:44;;;;;;;1.30;0.70;;;14.30;92.60;;;;;;5065737;28;20081;-79
2022/08/15 07:19:12;;;;;;;1.40;0.50;;;14.30;92.70;;;;;;5063358;28;20044;-79
2022/08/15 07:21:40;;;;;;;1.25;0.50;;;14.30;92.70;;;;;;5051729;28;20035;-78
2022/08/15 07:24:21;;;;;;;1.40;0.50;;;14.20;92.80;;;;;;5064625;28;20032;-79
2022/08/15 07:27:14;;;;;;;1.70;0.80;;;14.20;93.00;;;;;;5061911;28;20083;-79
2022/08/15 07:29:46;;;;;;;0.93;0.50;;;14.10;93.00;;;;;;5056583;28;20029;-84
2022/08/15 07:32:42;;;;;;;1.88;1.27;;;14.10;93.10;;;;;;5071840;28;20029;-81
2022/08/15 07:35:13;;;;;;;1.73;0.98;;;14.00;93.20;;;;;;5057463;28;20161;-79
2022/08/15 07:38:03;;;;;;;1.38;0.50;;;14.00;93.30;;;;;;5061913;28;20100;-80
2022/08/15 07:40:37;;;;;;;2.70;0.52;;;14.00;93.40;;;;;;5055221;28;20032;-80
2022/08/15 07:43:25;;;;;;;0.77;0.20;;;14.00;93.60;;;;;;5058893;28;20456;-80
2022/08/15 07:46:08;;;;;;;0.30;0.20;;;13.90;93.60;;;;;;5071765;28;20035;-80
2022/08/15 07:48:35;;;;;;;0.75;0.65;;;13.90;93.70;;;;;;5050351;28;20060;-78
2022/08/15 07:51:22;;;;;;;0.43;0.20;;;13.90;94.00;;;;;;5066329;28;20032;-78
2022/08/15 07:54:01;;;;;;;0.25;0.22;;;13.80;93.80;;;;;;5052682;28;20143;-77
2022/08/15 07:56:31;;;;;;;0.22;0.13;;;13.80;93.90;;;;;;5062492;28;20025;-76
2022/08/15 07:59:25;;;;;;;1.02;0.35;;;13.80;93.90;;;;;;5056497;28;20399;-77
2022/08/15 08:02:07;;;;;;;1.35;0.35;;;13.80;94.00;;;;;;5064564;28;20483;-80
2022/08/15 08:04:36;;;;;;;1.13;0.20;;;13.70;94.00;;;;;;5063412;28;20037;-77
2022/08/15 08:07:29;;;;;;;0.35;0.20;;;13.70;94.10;;;;;;5067108;28;20420;-78
2022/08/15 08:10:08;;;;;;;0.60;0.20;;;13.70;94.00;;;;;;5063322;28;20498;-78
2022/08/15 08:12:56;;;;;;;0.38;0.20;;;13.70;94.20;;;;;;5063627;28;20032;-79
2022/08/15 08:16:08;;;;;;;0.30;0.15;;;13.70;94.20;;;;;;5054762;28;20033;-82
2022/08/15 08:19:02;;;;;;;0.40;0.20;;;13.70;94.20;;;;;;5042708;28;20068;-78
2022/08/15 08:22:02;;;;;;;0.32;0.22;;;13.70;94.30;;;;;;5068199;28;20582;-77
2022/08/15 08:24:54;;;;;;;0.63;0.30;;;13.60;94.40;;;;;;5052707;28;20143;-77
2022/08/15 08:27:49;;;;;;;1.17;0.40;;;13.60;94.50;;;;;;5066112;28;20039;-77
2022/08/15 08:30:37;;;;;;;2.15;0.40;;;13.60;94.50;;;;;;5071534;28;20550;-76
2022/08/15 08:33:18;;;;;;;0.90;0.30;;;13.50;94.60;;;;;;5051654;28;20107;-78
2022/08/15 08:36:01;;;;;;;0.60;0.35;;;13.50;94.80;;;;;;5066067;28;20043;-78
2022/08/15 08:38:49;;;;;;;0.93;0.47;;;13.50;94.60;;;;;;5067038;28;20113;-80
2022/08/15 08:41:34;;;;;;;0.77;0.30;;;13.50;94.60;;;;;;5049961;28;20482;-77
2022/08/15 08:44:19;;;;;;;0.28;0.20;;;13.50;94.60;;;;;;5070980;28;20538;-79
2022/08/15 08:47:16;;;;;;;0.35;0.25;;;13.50;94.60;;;;;;5067507;28;20075;-79
2022/08/15 08:50:16;;;;;;;0.70;0.25;;;13.50;94.40;;;;;;5055534;28;20395;-76
2022/08/15 08:52:52;;;;;;;0.43;0.25;;;13.50;94.50;;;;;;5056189;28;20025;-79
2022/08/15 08:55:29;;;;;;;0.10;0.10;;;13.50;94.50;;;;;;5061098;28;20127;-80
2022/08/15 10:08:55;;;;;;;3.63;0.97;;;12.70;95.80;;;;;;5678373;23;20052;-76
2022/08/15 10:11:54;;;;;;;1.25;0.45;;;12.60;96.30;;;;;;4904774;29;20115;-75
2022/08/15 10:14:22;;;;;;;2.70;0.70;;;12.50;96.30;;;;;;4909388;29;20387;-74
2022/08/15 10:16:59;;;;;;;1.23;0.82;;;12.50;96.60;;;;;;4887144;29;20528;-75
2022/08/15 10:19:34;;;;;;;1.23;0.52;;;12.40;97.00;;;;;;4889117;29;20087;-77
2022/08/15 10:22:24;;;;;;;0.90;0.50;;;12.30;96.90;;;;;;4906872;29;20025;-76
2022/08/15 10:25:16;;;;;;;0.60;0.40;;;12.30;97.30;;;;;;4911233;29;20028;-75
2022/08/15 10:28:27;;;;;;;0.60;0.30;;;12.20;97.30;;;;;;4910883;29;20047;-76
2022/08/15 10:31:05;;;;;;;2.17;0.60;;;12.10;97.40;;;;;;4896814;29;20032;-78
2022/08/15 10:33:33;;;;;;;2.67;0.63;;;12.00;97.40;;;;;;4915827;29;20112;-75
2022/08/15 10:36:15;;;;;;;1.20;0.65;;;11.90;97.90;;;;;;4913939;29;20446;-74
2022/08/15 10:38:44;;;;;;;1.92;1.00;;;11.80;98.00;;;;;;4916179;29;20118;-76
2022/08/15 10:41:23;;;;;;;1.75;0.93;;;11.60;98.10;;;;;;4911933;29;20088;-76
2022/08/15 10:43:56;;;;;;;1.95;1.05;;;11.60;98.30;;;;;;4916136;29;20110;-77
2022/08/15 10:46:37;;;;;;;1.83;1.00;;;11.60;98.30;;;;;;4908204;29;20044;-76
2022/08/15 10:49:04;;;;;;;2.35;1.33;;;11.60;98.40;;;;;;4915807;29;20050;-75
2022/08/15 10:51:58;;;;;;;1.73;1.60;;;11.50;98.50;;;;;;4910941;29;20123;-77
2022/08/15 10:55:01;;;;;;;2.40;1.50;;;11.40;98.60;;;;;;4903527;29;20036;-77
2022/08/15 10:57:44;;;;;;;5.10;1.48;;;11.30;98.70;;;;;;4914266;29;20043;-81
2022/08/15 11:00:37;;;;;;;4.03;1.90;;;11.30;99.00;;;;;;4913315;29;20059;-82
2022/08/15 11:03:12;;;;;;;4.47;2.03;;;11.30;99.00;;;;;;4911822;29;20479;-78
2022/08/15 11:05:40;;;;;;;3.25;1.52;;;11.10;99.10;;;;;;4910657;29;20035;-76
2022/08/15 11:08:17;;;;;;;2.72;1.45;;;11.10;99.30;;;;;;4908668;29;20490;-77
2022/08/15 11:10:45;;;;;;;4.88;2.08;;;11.10;99.50;;;;;;4912073;29;20075;-79
2022/08/15 11:13:15;;;;;;;5.28;3.58;;;11.10;99.60;;;;;;4912304;29;20032;-78
2022/08/15 11:15:57;;;;;;;10.85;4.93;;;11.10;99.60;;;;;;4911969;29;20127;-77
2022/08/15 11:18:34;;;;;;;8.30;4.22;;;11.10;99.50;;;;;;4906070;29;20123;-77
2022/08/15 11:21:17;;;;;;;2.85;1.75;;;11.20;99.60;;;;;;4895983;29;20646;-81
2022/08/15 11:23:53;;;;;;;2.08;1.75;;;11.20;99.50;;;;;;4911432;29;20032;-77
2022/08/15 11:26:29;;;;;;;2.25;1.33;;;11.20;99.50;;;;;;4918319;29;20047;-78
2022/08/15 11:29:06;;;;;;;;;;;11.20;99.50;;;;;;4895974;29;20020;-78
2022/08/15 11:31:57;;;;;;;2.92;1.40;;;11.30;99.40;;;;;;4910070;29;20009;-78
2022/08/15 11:34:27;;;;;;;2.15;1.17;;;11.20;99.30;;;;;;4911579;29;20040;-79
2022/08/15 11:37:11;;;;;;;3.00;1.48;;;11.30;99.30;;;;;;4914159;29;20036;-79
2022/08/15 11:40:07;;;;;;;2.58;1.55;;;11.30;99.30;;;;;;4897827;29;20047;-78
2022/08/15 11:42:42;;;;;;;3.13;1.60;;;11.40;99.20;;;;;;4907165;29;20036;-79
2022/08/15 11:45:18;;;;;;;2.50;1.42;;;11.40;99.10;;;;;;4913863;29;20115;-78
2022/08/15 11:47:55;;;;;;;1.58;1.15;;;11.50;99.30;;;;;;4897637;29;20119;-79
2022/08/15 11:50:23;;;;;;;2.63;0.95;;;11.40;99.30;;;;;;4911986;29;20118;-78
2022/08/15 11:52:54;;;;;;;2.28;1.17;;;11.40;99.40;;;;;;4904770;29;20040;-77
2022/08/15 11:55:28;;;;;;;2.90;1.55;;;11.40;99.70;;;;;;4909113;29;20376;-79
2022/08/15 11:58:03;;;;;;;2.35;0.63;;;11.30;99.70;;;;;;4908327;29;20028;-79
2022/08/15 12:00:56;;;;;;;3.40;1.15;;;11.30;99.80;;;;;;4905621;29;20077;-76
2022/08/15 12:03:35;;;;;;;1.77;0.90;;;11.30;99.70;;;;;;4898848;29;20068;-77
2022/08/15 12:06:14;;;;;;;1.85;0.98;;;11.30;99.70;;;;;;4900797;29;20525;-77
2022/08/15 12:08:44;;;;;;;1.85;1.13;;;11.30;99.90;;;;;;4896006;29;20048;-79
2022/08/15 12:11:15;;;;;;;2.65;1.48;;;11.20;99.80;;;;;;4906418;29;20024;-77
2022/08/15 12:13:59;;;;;;;1.73;1.08;;;11.20;99.70;;;;;;4904545;29;20042;-77
2022/08/15 12:16:33;;;;;;;2.65;1.02;;;11.20;99.90;;;;;;4912197;29;20032;-78
2022/08/15 12:19:38;;;;;;;1.35;1.08;;;11.10;99.90;;;;;;4912520;29;20402;-78
2022/08/15 12:22:13;;;;;;;3.22;1.63;;;11.10;99.90;;;;;;4910074;29;20501;-76
2022/08/15 12:24:42;;;;;;;2.27;0.97;;;11.10;99.90;;;;;;4905849;29;20064;-79
2022/08/15 12:27:11;;;;;;;5.50;1.83;;;11.00;99.90;;;;;;4916369;29;20075;-79
2022/08/15 12:29:40;;;;;;;3.33;1.80;;;11.00;99.90;;;;;;4901569;29;20036;-78
2022/08/15 12:32:12;;;;;;;1.65;1.13;;;11.00;99.90;;;;;;4905023;29;20028;-79
2022/08/15 12:34:49;;;;;;;2.15;1.33;;;11.00;99.90;;;;;;4913635;29;20040;-79
2022/08/15 12:37:24;;;;;;;1.67;0.82;;;11.00;99.90;;;;;;4911505;29;20084;-78
2022/08/15 12:39:54;;;;;;;1.52;0.95;;;11.00;99.90;;;;;;4908268;29;20128;-79
2022/08/15 12:42:28;;;;;;;1.95;0.68;;;11.00;99.90;;;;;;4899821;29;20028;-80
2022/08/15 12:44:59;;;;;;;5.40;1.02;;;11.00;99.90;;;;;;4907503;29;20028;-76
2022/08/15 12:47:31;;;;;;;2.35;0.95;;;11.00;99.90;;;;;;4905388;29;20052;-78
2022/08/15 12:49:59;;;;;;;1.00;0.60;;;11.00;99.90;;;;;;4914798;29;20059;-78
2022/08/15 12:52:27;;;;;;;1.63;0.60;;;11.10;99.90;;;;;;4904654;29;20319;-80
2022/08/15 12:54:54;;;;;;;2.00;1.30;;;11.10;99.90;;;;;;4915581;29;20821;-81
2022/08/15 12:57:22;;;;;;;3.35;1.08;;;11.10;99.90;;;;;;4908834;29;20036;-80
2022/08/15 12:59:49;;;;;;;2.53;0.90;;;11.10;99.90;;;;;;4902273;29;20032;-81
2022/08/15 13:02:17;;;;;;;1.73;0.77;;;11.10;99.90;;;;;;4905584;29;20115;-76
2022/08/15 13:04:56;;;;;;;2.22;1.50;;;11.10;99.90;;;;;;4912970;29;20526;-78
2022/08/15 13:07:25;;;;;;;1.80;1.00;;;11.10;99.90;;;;;;4898878;29;20942;-78
2022/08/15 13:09:53;;;;;;;1.80;1.25;;;11.10;99.90;;;;;;4909357;29;20084;-77
2022/08/15 13:12:20;;;;;;;4.93;2.05;;;11.00;99.90;;;;;;4907165;29;20032;-78
2022/08/15 13:14:48;;;;;;;2.95;1.90;;;11.00;99.90;;;;;;4894302;29;20234;-80
2022/08/15 13:17:16;;;;;;;2.80;1.80;;;11.00;99.90;;;;;;4902385;29;20135;-80
2022/08/15 13:25:23;;;;;;;2.67;1.23;;;11.00;99.90;;;;;;4908047;29;20059;-78
2022/08/15 13:27:50;;;;;;;3.33;1.55;;;10.90;99.90;;;;;;4917264;29;20320;-79
2022/08/15 13:30:20;;;;;;;1.45;0.95;;;10.90;99.90;;;;;;4907901;29;20028;-79
2022/08/15 13:32:48;;;;;;;2.78;1.52;;;10.80;99.90;;;;;;4910892;29;20032;-78
2022/08/15 13:35:20;;;;;;;2.90;1.25;;;10.80;99.90;;;;;;4913288;29;20058;-79
2022/08/15 13:37:50;;;;;;;2.78;1.05;;;10.80;99.90;;;;;;4912256;29;20067;-79
2022/08/15 13:40:24;;;;;;;2.45;1.30;;;10.70;99.90;;;;;;4908385;29;20043;-79
2022/08/15 13:42:54;;;;;;;1.60;1.00;;;10.70;99.90;;;;;;4913868;29;20032;-79
2022/08/15 13:45:22;;;;;;;4.03;1.45;;;10.70;99.90;;;;;;4911155;29;20059;-78
2022/08/15 13:47:49;;;;;;;1.60;0.88;;;10.60;99.90;;;;;;4913050;29;20028;-77
2022/08/15 13:50:17;;;;;;;2.78;1.40;;;10.50;99.90;;;;;;4909232;29;20021;-79
2022/08/15 13:52:45;;;;;;;1.75;0.82;;;10.50;99.90;;;;;;4906534;29;20028;-79
2022/08/15 13:55:13;;;;;;;1.33;0.80;;;10.40;99.90;;;;;;4912699;29;20040;-78
2022/08/15 13:57:40;;;;;;;1.90;0.93;;;10.40;99.90;;;;;;4909410;29;20056;-78
2022/08/15 14:00:11;;;;;;;1.50;0.88;;;10.30;99.90;;;;;;4914128;29;20498;-79
2022/08/15 14:02:43;;;;;;;2.25;0.77;;;10.30;99.90;;;;;;4911103;29;20032;-80
2022/08/15 14:05:15;;;;;;;2.05;1.38;;;10.30;99.90;;;;;;4914353;29;20119;-77
2022/08/15 14:07:48;;;;;;;1.10;0.60;;;10.30;99.90;;;;;;4910079;29;20142;-79
2022/08/15 14:10:19;;;;;;;3.40;1.10;;;10.30;99.90;;;;;;4910757;29;21753;-80
2022/08/15 14:12:47;;;;;;;2.50;1.23;;;10.20;99.90;;;;;;4906929;29;20157;-77
2022/08/15 14:15:16;;;;;;;6.00;2.40;;;10.20;99.90;;;;;;4912762;29;20036;-77
2022/08/15 14:21:07;;;;;;;3.97;2.00;;;10.20;99.90;;;;;;4903654;29;20413;-76
2022/08/15 14:23:35;;;;;;;3.65;1.65;;;10.20;99.90;;;;;;4901886;29;20032;-76
2022/08/15 14:26:04;;;;;;;5.28;2.22;;;10.20;99.90;;;;;;4904959;29;20090;-75
2022/08/15 14:28:34;;;;;;;1.63;0.93;;;10.10;99.90;;;;;;4905751;29;20048;-77
2022/08/15 14:31:03;;;;;;;2.63;1.00;;;10.10;99.90;;;;;;4904898;29;20032;-78
2022/08/15 14:33:31;;;;;;;3.42;1.05;;;10.00;99.90;;;;;;4892812;29;20052;-76
2022/08/15 14:35:59;;;;;;;2.72;1.52;;;9.90;99.90;;;;;;4913015;29;20596;-77
2022/08/15 14:38:30;;;;;;;2.47;0.90;;;9.90;99.90;;;;;;4906045;29;20506;-77
2022/08/15 14:41:00;;;;;;;2.70;1.08;;;9.80;99.90;;;;;;4913709;29;20066;-77
2022/08/15 14:43:28;;;;;;;2.55;1.30;;;9.70;99.90;;;;;;4905515;29;20039;-78
2022/08/15 14:46:00;;;;;;;4.65;1.67;;;9.70;99.90;;;;;;4896994;29;20033;-77
2022/08/15 14:48:31;;;;;;;2.78;1.50;;;9.60;99.90;;;;;;4912049;29;20442;-77